sensor_id;sensor_type;location;lat;lon;timestamp;P1;durP1;ratioP1;P2;durP2;ratioP2
18820;SDS011;9539;59.332;18.034;2022-09-29T00:00:41;2.72;;;1.80;;
18820;SDS011;9539;59.332;18.034;2022-09-29T00:03:08;4.30;;;2.20;;
18820;SDS011;9539;59.332;18.034;2022-09-29T00:05:35;2.58;;;2.35;;
18820;SDS011;9539;59.332;18.034;2022-09-29T00:08:01;3.17;;;2.25;;
18820;SDS011;9539;59.332;18.034;2022-09-29T00:10:30;5.65;;;2.60;;
18820;SDS011;9539;59.332;18.034;2022-09-29T00:12:56;4.32;;;3.03;;
18820;SDS011;9539;59.332;18.034;2022-09-29T00:15:23;3.08;;;2.35;;
18820;SDS011;9539;59.332;18.034;2022-09-29T00:17:49;3.25;;;2.72;;
18820;SDS011;9539;59.332;18.034;2022-09-29T00:20:16;5.10;;;2.70;;
18820;SDS011;9539;59.332;18.034;2022-09-29T00:22:48;5.97;;;2.95;;
18820;SDS011;9539;59.332;18.034;2022-09-29T00:25:15;5.68;;;2.47;;
18820;SDS011;9539;59.332;18.034;2022-09-29T00:27:43;2.80;;;2.50;;
18820;SDS011;9539;59.332;18.034;2022-09-29T00:30:10;5.47;;;2.88;;
18820;SDS011;9539;59.332;18.034;2022-09-29T00:32:38;3.30;;;3.00;;
18820;SDS011;9539;59.332;18.034;2022-09-29T00:35:05;5.05;;;2.92;;
18820;SDS011;9539;59.332;18.034;2022-09-29T00:37:32;3.17;;;2.53;;
18820;SDS011;9539;59.332;18.034;2022-09-29T00:39:59;3.33;;;2.80;;
18820;SDS011;9539;59.332;18.034;2022-09-29T00:42:26;3.85;;;2.72;;
18820;SDS011;9539;59.332;18.034;2022-09-29T00:44:56;4.10;;;2.70;;
18820;SDS011;9539;59.332;18.034;2022-09-29T00:47:27;4.22;;;3.10;;
18820;SDS011;9539;59.332;18.034;2022-09-29T00:49:57;4.20;;;2.42;;
18820;SDS011;9539;59.332;18.034;2022-09-29T00:52:27;4.25;;;2.85;;
18820;SDS011;9539;59.332;18.034;2022-09-29T00:54:59;4.03;;;2.83;;
18820;SDS011;9539;59.332;18.034;2022-09-29T00:57:32;4.53;;;2.72;;
18820;SDS011;9539;59.332;18.034;2022-09-29T01:00:05;3.33;;;2.80;;
18820;SDS011;9539;59.332;18.034;2022-09-29T01:02:35;2.95;;;2.65;;
18820;SDS011;9539;59.332;18.034;2022-09-29T01:05:06;5.07;;;3.10;;
18820;SDS011;9539;59.332;18.034;2022-09-29T01:07:38;4.70;;;3.10;;
18820;SDS011;9539;59.332;18.034;2022-09-29T01:10:07;4.40;;;3.15;;
18820;SDS011;9539;59.332;18.034;2022-09-29T01:12:35;5.35;;;3.03;;
18820;SDS011;9539;59.332;18.034;2022-09-29T01:15:03;5.53;;;3.65;;
18820;SDS011;9539;59.332;18.034;2022-09-29T01:17:31;5.40;;;3.63;;
18820;SDS011;9539;59.332;18.034;2022-09-29T01:20:00;4.07;;;3.17;;
18820;SDS011;9539;59.332;18.034;2022-09-29T01:25:53;3.17;;;2.88;;
18820;SDS011;9539;59.332;18.034;2022-09-29T01:28:43;5.53;;;3.00;;
18820;SDS011;9539;59.332;18.034;2022-09-29T01:31:28;3.78;;;3.13;;
18820;SDS011;9539;59.332;18.034;2022-09-29T01:34:05;4.85;;;3.42;;
18820;SDS011;9539;59.332;18.034;2022-09-29T01:36:36;4.07;;;3.53;;
18820;SDS011;9539;59.332;18.034;2022-09-29T01:39:13;3.63;;;3.13;;
18820;SDS011;9539;59.332;18.034;2022-09-29T01:41:48;3.80;;;3.08;;
18820;SDS011;9539;59.332;18.034;2022-09-29T01:44:20;4.88;;;3.13;;
18820;SDS011;9539;59.332;18.034;2022-09-29T01:46:54;4.00;;;3.25;;
18820;SDS011;9539;59.332;18.034;2022-09-29T01:49:25;4.65;;;3.15;;
18820;SDS011;9539;59.332;18.034;2022-09-29T01:51:56;5.78;;;3.03;;
18820;SDS011;9539;59.332;18.034;2022-09-29T01:54:29;5.32;;;3.17;;
18820;SDS011;9539;59.332;18.034;2022-09-29T01:57:01;3.95;;;3.53;;
18820;SDS011;9539;59.332;18.034;2022-09-29T01:59:35;4.28;;;3.38;;
18820;SDS011;9539;59.332;18.034;2022-09-29T02:02:10;5.85;;;3.70;;
18820;SDS011;9539;59.332;18.034;2022-09-29T02:04:40;6.10;;;3.50;;
18820;SDS011;9539;59.332;18.034;2022-09-29T02:07:12;5.60;;;3.58;;
18820;SDS011;9539;59.332;18.034;2022-09-29T02:09:45;4.32;;;3.28;;
18820;SDS011;9539;59.332;18.034;2022-09-29T02:12:16;4.35;;;3.60;;
18820;SDS011;9539;59.332;18.034;2022-09-29T02:14:49;4.07;;;3.50;;
18820;SDS011;9539;59.332;18.034;2022-09-29T02:17:19;6.05;;;3.60;;
18820;SDS011;9539;59.332;18.034;2022-09-29T02:19:50;3.95;;;3.47;;
18820;SDS011;9539;59.332;18.034;2022-09-29T02:22:17;4.47;;;3.90;;
18820;SDS011;9539;59.332;18.034;2022-09-29T02:24:44;5.25;;;3.70;;
18820;SDS011;9539;59.332;18.034;2022-09-29T02:27:12;5.43;;;3.90;;
18820;SDS011;9539;59.332;18.034;2022-09-29T02:29:39;4.50;;;3.28;;
18820;SDS011;9539;59.332;18.034;2022-09-29T02:32:07;4.32;;;3.45;;
18820;SDS011;9539;59.332;18.034;2022-09-29T02:34:35;8.80;;;4.22;;
18820;SDS011;9539;59.332;18.034;2022-09-29T02:37:10;5.00;;;3.60;;
18820;SDS011;9539;59.332;18.034;2022-09-29T02:39:47;4.22;;;3.40;;
18820;SDS011;9539;59.332;18.034;2022-09-29T02:42:23;5.50;;;4.13;;
18820;SDS011;9539;59.332;18.034;2022-09-29T02:44:57;6.10;;;4.30;;
18820;SDS011;9539;59.332;18.034;2022-09-29T02:47:41;6.35;;;4.30;;
18820;SDS011;9539;59.332;18.034;2022-09-29T02:50:33;7.10;;;4.22;;
18820;SDS011;9539;59.332;18.034;2022-09-29T02:53:11;6.20;;;3.90;;
18820;SDS011;9539;59.332;18.034;2022-09-29T02:55:48;5.55;;;4.10;;
18820;SDS011;9539;59.332;18.034;2022-09-29T02:58:25;7.35;;;4.32;;
18820;SDS011;9539;59.332;18.034;2022-09-29T03:00:58;5.07;;;3.80;;
18820;SDS011;9539;59.332;18.034;2022-09-29T03:03:25;4.68;;;3.95;;
18820;SDS011;9539;59.332;18.034;2022-09-29T03:05:53;6.82;;;3.90;;
18820;SDS011;9539;59.332;18.034;2022-09-29T03:08:20;4.57;;;3.83;;
18820;SDS011;9539;59.332;18.034;2022-09-29T03:10:47;5.03;;;4.00;;
18820;SDS011;9539;59.332;18.034;2022-09-29T03:13:14;6.38;;;4.20;;
18820;SDS011;9539;59.332;18.034;2022-09-29T03:15:41;5.93;;;4.25;;
18820;SDS011;9539;59.332;18.034;2022-09-29T03:18:07;4.30;;;3.90;;
18820;SDS011;9539;59.332;18.034;2022-09-29T03:20:34;7.32;;;4.25;;
18820;SDS011;9539;59.332;18.034;2022-09-29T03:23:02;6.40;;;3.95;;
18820;SDS011;9539;59.332;18.034;2022-09-29T03:25:29;3.63;;;3.08;;
18820;SDS011;9539;59.332;18.034;2022-09-29T03:27:55;4.60;;;3.70;;
18820;SDS011;9539;59.332;18.034;2022-09-29T03:30:22;6.97;;;3.67;;
18820;SDS011;9539;59.332;18.034;2022-09-29T03:32:49;5.85;;;3.90;;
18820;SDS011;9539;59.332;18.034;2022-09-29T03:35:16;5.00;;;3.85;;
18820;SDS011;9539;59.332;18.034;2022-09-29T03:37:42;5.55;;;4.30;;
18820;SDS011;9539;59.332;18.034;2022-09-29T03:40:11;6.63;;;3.97;;
18820;SDS011;9539;59.332;18.034;2022-09-29T03:42:37;4.88;;;4.15;;
18820;SDS011;9539;59.332;18.034;2022-09-29T03:45:04;5.45;;;4.10;;
18820;SDS011;9539;59.332;18.034;2022-09-29T03:47:31;5.93;;;4.18;;
18820;SDS011;9539;59.332;18.034;2022-09-29T03:49:58;5.50;;;3.97;;
18820;SDS011;9539;59.332;18.034;2022-09-29T03:52:25;6.95;;;4.40;;
18820;SDS011;9539;59.332;18.034;2022-09-29T03:54:51;5.72;;;4.53;;
18820;SDS011;9539;59.332;18.034;2022-09-29T03:57:19;4.85;;;4.00;;
18820;SDS011;9539;59.332;18.034;2022-09-29T03:59:46;5.38;;;4.07;;
18820;SDS011;9539;59.332;18.034;2022-09-29T04:02:13;4.95;;;4.38;;
18820;SDS011;9539;59.332;18.034;2022-09-29T04:04:42;5.68;;;4.22;;
18820;SDS011;9539;59.332;18.034;2022-09-29T04:07:09;6.07;;;4.13;;
18820;SDS011;9539;59.332;18.034;2022-09-29T04:09:35;7.22;;;4.22;;
18820;SDS011;9539;59.332;18.034;2022-09-29T04:12:02;6.63;;;4.20;;
18820;SDS011;9539;59.332;18.034;2022-09-29T04:14:30;5.30;;;4.13;;
18820;SDS011;9539;59.332;18.034;2022-09-29T04:16:57;9.82;;;4.13;;
18820;SDS011;9539;59.332;18.034;2022-09-29T04:19:24;4.70;;;4.20;;
18820;SDS011;9539;59.332;18.034;2022-09-29T04:21:50;4.65;;;3.80;;
18820;SDS011;9539;59.332;18.034;2022-09-29T04:24:17;4.32;;;3.92;;
18820;SDS011;9539;59.332;18.034;2022-09-29T04:26:44;6.22;;;4.45;;
18820;SDS011;9539;59.332;18.034;2022-09-29T04:29:10;5.88;;;4.10;;
18820;SDS011;9539;59.332;18.034;2022-09-29T04:31:38;6.05;;;4.30;;
18820;SDS011;9539;59.332;18.034;2022-09-29T04:34:05;8.35;;;4.90;;
18820;SDS011;9539;59.332;18.034;2022-09-29T04:36:32;5.60;;;3.90;;
18820;SDS011;9539;59.332;18.034;2022-09-29T04:38:58;5.25;;;4.25;;
18820;SDS011;9539;59.332;18.034;2022-09-29T04:41:25;7.72;;;4.38;;
18820;SDS011;9539;59.332;18.034;2022-09-29T04:43:52;6.90;;;4.40;;
18820;SDS011;9539;59.332;18.034;2022-09-29T04:46:18;4.72;;;3.38;;
18820;SDS011;9539;59.332;18.034;2022-09-29T04:48:46;4.70;;;4.00;;
18820;SDS011;9539;59.332;18.034;2022-09-29T04:51:13;4.78;;;4.28;;
18820;SDS011;9539;59.332;18.034;2022-09-29T04:53:39;10.35;;;4.50;;
18820;SDS011;9539;59.332;18.034;2022-09-29T04:56:06;7.15;;;4.30;;
18820;SDS011;9539;59.332;18.034;2022-09-29T04:58:33;5.53;;;4.07;;
18820;SDS011;9539;59.332;18.034;2022-09-29T05:01:07;6.10;;;4.47;;
18820;SDS011;9539;59.332;18.034;2022-09-29T05:03:36;6.40;;;3.78;;
18820;SDS011;9539;59.332;18.034;2022-09-29T05:06:05;5.97;;;4.10;;
18820;SDS011;9539;59.332;18.034;2022-09-29T05:08:33;4.25;;;3.60;;
18820;SDS011;9539;59.332;18.034;2022-09-29T05:11:01;7.97;;;3.97;;
18820;SDS011;9539;59.332;18.034;2022-09-29T05:13:29;5.63;;;4.30;;
18820;SDS011;9539;59.332;18.034;2022-09-29T05:15:56;6.13;;;4.43;;
18820;SDS011;9539;59.332;18.034;2022-09-29T05:18:23;5.13;;;4.13;;
18820;SDS011;9539;59.332;18.034;2022-09-29T05:20:50;5.00;;;3.90;;
18820;SDS011;9539;59.332;18.034;2022-09-29T05:23:19;5.68;;;4.10;;
18820;SDS011;9539;59.332;18.034;2022-09-29T05:25:46;4.22;;;3.80;;
18820;SDS011;9539;59.332;18.034;2022-09-29T05:28:13;6.50;;;4.20;;
18820;SDS011;9539;59.332;18.034;2022-09-29T05:30:40;5.28;;;3.97;;
18820;SDS011;9539;59.332;18.034;2022-09-29T05:33:07;7.40;;;4.25;;
18820;SDS011;9539;59.332;18.034;2022-09-29T05:35:34;3.83;;;2.80;;
18820;SDS011;9539;59.332;18.034;2022-09-29T05:38:01;4.28;;;3.70;;
18820;SDS011;9539;59.332;18.034;2022-09-29T05:40:29;4.30;;;3.10;;
18820;SDS011;9539;59.332;18.034;2022-09-29T05:42:57;5.50;;;3.90;;
18820;SDS011;9539;59.332;18.034;2022-09-29T05:45:24;5.38;;;3.75;;
18820;SDS011;9539;59.332;18.034;2022-09-29T05:47:51;4.47;;;3.30;;
18820;SDS011;9539;59.332;18.034;2022-09-29T05:50:19;5.55;;;3.03;;
18820;SDS011;9539;59.332;18.034;2022-09-29T05:52:46;3.72;;;3.33;;
18820;SDS011;9539;59.332;18.034;2022-09-29T05:55:14;6.18;;;3.50;;
18820;SDS011;9539;59.332;18.034;2022-09-29T05:57:44;5.82;;;3.53;;
18820;SDS011;9539;59.332;18.034;2022-09-29T06:00:13;6.00;;;2.90;;
18820;SDS011;9539;59.332;18.034;2022-09-29T06:02:40;5.07;;;3.42;;
18820;SDS011;9539;59.332;18.034;2022-09-29T06:05:06;4.07;;;3.28;;
18820;SDS011;9539;59.332;18.034;2022-09-29T06:07:33;4.75;;;2.92;;
18820;SDS011;9539;59.332;18.034;2022-09-29T06:10:00;4.95;;;3.58;;
18820;SDS011;9539;59.332;18.034;2022-09-29T06:12:27;4.70;;;3.33;;
18820;SDS011;9539;59.332;18.034;2022-09-29T06:14:55;5.03;;;2.97;;
18820;SDS011;9539;59.332;18.034;2022-09-29T06:17:22;5.63;;;2.85;;
18820;SDS011;9539;59.332;18.034;2022-09-29T06:19:49;3.55;;;2.85;;
18820;SDS011;9539;59.332;18.034;2022-09-29T06:22:16;4.68;;;3.08;;
18820;SDS011;9539;59.332;18.034;2022-09-29T06:24:45;3.85;;;2.60;;
18820;SDS011;9539;59.332;18.034;2022-09-29T06:27:11;3.13;;;2.60;;
18820;SDS011;9539;59.332;18.034;2022-09-29T06:29:38;4.75;;;2.90;;
18820;SDS011;9539;59.332;18.034;2022-09-29T06:32:06;4.95;;;2.88;;
18820;SDS011;9539;59.332;18.034;2022-09-29T06:34:33;6.43;;;2.60;;
18820;SDS011;9539;59.332;18.034;2022-09-29T06:37:20;2.90;;;2.47;;
18820;SDS011;9539;59.332;18.034;2022-09-29T06:40:04;4.53;;;2.80;;
18820;SDS011;9539;59.332;18.034;2022-09-29T06:42:32;3.03;;;2.40;;
18820;SDS011;9539;59.332;18.034;2022-09-29T06:44:59;3.60;;;2.80;;
18820;SDS011;9539;59.332;18.034;2022-09-29T06:47:27;3.17;;;2.60;;
18820;SDS011;9539;59.332;18.034;2022-09-29T06:49:54;3.80;;;2.75;;
18820;SDS011;9539;59.332;18.034;2022-09-29T06:52:21;2.83;;;2.53;;
18820;SDS011;9539;59.332;18.034;2022-09-29T06:54:48;3.78;;;2.60;;
18820;SDS011;9539;59.332;18.034;2022-09-29T06:57:15;4.57;;;2.60;;
18820;SDS011;9539;59.332;18.034;2022-09-29T06:59:43;4.65;;;2.75;;
18820;SDS011;9539;59.332;18.034;2022-09-29T07:02:10;4.10;;;2.50;;
18820;SDS011;9539;59.332;18.034;2022-09-29T07:04:38;4.65;;;2.22;;
18820;SDS011;9539;59.332;18.034;2022-09-29T07:07:05;3.08;;;2.25;;
18820;SDS011;9539;59.332;18.034;2022-09-29T07:09:32;3.28;;;2.20;;
18820;SDS011;9539;59.332;18.034;2022-09-29T07:11:59;5.75;;;2.25;;
18820;SDS011;9539;59.332;18.034;2022-09-29T07:14:26;3.35;;;2.38;;
18820;SDS011;9539;59.332;18.034;2022-09-29T07:16:53;2.58;;;2.25;;
18820;SDS011;9539;59.332;18.034;2022-09-29T07:19:20;2.40;;;1.70;;
18820;SDS011;9539;59.332;18.034;2022-09-29T07:21:48;3.17;;;2.15;;
18820;SDS011;9539;59.332;18.034;2022-09-29T07:24:15;2.97;;;2.38;;
18820;SDS011;9539;59.332;18.034;2022-09-29T07:26:42;1.90;;;1.80;;
18820;SDS011;9539;59.332;18.034;2022-09-29T07:29:09;2.55;;;2.20;;
18820;SDS011;9539;59.332;18.034;2022-09-29T07:31:36;3.45;;;2.40;;
18820;SDS011;9539;59.332;18.034;2022-09-29T07:34:04;2.67;;;2.08;;
18820;SDS011;9539;59.332;18.034;2022-09-29T07:36:31;3.67;;;2.10;;
18820;SDS011;9539;59.332;18.034;2022-09-29T07:39:00;2.92;;;1.80;;
18820;SDS011;9539;59.332;18.034;2022-09-29T07:41:26;1.92;;;1.75;;
18820;SDS011;9539;59.332;18.034;2022-09-29T07:43:53;2.97;;;1.95;;
18820;SDS011;9539;59.332;18.034;2022-09-29T07:46:20;3.92;;;1.90;;
18820;SDS011;9539;59.332;18.034;2022-09-29T07:48:47;2.90;;;2.20;;
18820;SDS011;9539;59.332;18.034;2022-09-29T07:51:14;4.72;;;2.00;;
18820;SDS011;9539;59.332;18.034;2022-09-29T07:53:42;3.72;;;2.00;;
18820;SDS011;9539;59.332;18.034;2022-09-29T07:56:12;2.70;;;2.30;;
18820;SDS011;9539;59.332;18.034;2022-09-29T07:58:41;2.85;;;2.10;;
18820;SDS011;9539;59.332;18.034;2022-09-29T08:01:09;3.58;;;2.10;;
18820;SDS011;9539;59.332;18.034;2022-09-29T08:03:39;4.07;;;2.20;;
18820;SDS011;9539;59.332;18.034;2022-09-29T08:06:07;3.45;;;2.03;;
18820;SDS011;9539;59.332;18.034;2022-09-29T08:08:35;2.40;;;2.20;;
18820;SDS011;9539;59.332;18.034;2022-09-29T08:11:03;2.53;;;2.10;;
18820;SDS011;9539;59.332;18.034;2022-09-29T08:13:33;2.42;;;1.90;;
18820;SDS011;9539;59.332;18.034;2022-09-29T08:16:01;1.85;;;1.70;;
18820;SDS011;9539;59.332;18.034;2022-09-29T08:18:30;3.00;;;2.10;;
18820;SDS011;9539;59.332;18.034;2022-09-29T08:20:58;3.03;;;2.13;;
18820;SDS011;9539;59.332;18.034;2022-09-29T08:23:26;2.92;;;2.00;;
18820;SDS011;9539;59.332;18.034;2022-09-29T08:25:57;2.72;;;1.92;;
18820;SDS011;9539;59.332;18.034;2022-09-29T08:28:26;2.63;;;2.00;;
18820;SDS011;9539;59.332;18.034;2022-09-29T08:30:55;3.50;;;2.08;;
18820;SDS011;9539;59.332;18.034;2022-09-29T08:33:23;3.30;;;2.15;;
18820;SDS011;9539;59.332;18.034;2022-09-29T08:35:54;3.35;;;2.10;;
18820;SDS011;9539;59.332;18.034;2022-09-29T08:38:22;3.22;;;2.45;;
18820;SDS011;9539;59.332;18.034;2022-09-29T08:40:49;2.55;;;2.10;;
18820;SDS011;9539;59.332;18.034;2022-09-29T08:43:17;4.63;;;1.60;;
18820;SDS011;9539;59.332;18.034;2022-09-29T08:45:48;3.53;;;2.30;;
18820;SDS011;9539;59.332;18.034;2022-09-29T08:48:24;4.97;;;1.98;;
18820;SDS011;9539;59.332;18.034;2022-09-29T08:50:54;3.63;;;2.33;;
18820;SDS011;9539;59.332;18.034;2022-09-29T08:53:23;3.83;;;2.45;;
18820;SDS011;9539;59.332;18.034;2022-09-29T08:55:53;4.70;;;2.25;;
18820;SDS011;9539;59.332;18.034;2022-09-29T08:58:22;5.80;;;2.53;;
18820;SDS011;9539;59.332;18.034;2022-09-29T09:00:52;2.13;;;1.92;;
18820;SDS011;9539;59.332;18.034;2022-09-29T09:03:36;3.30;;;2.15;;
18820;SDS011;9539;59.332;18.034;2022-09-29T09:06:20;2.63;;;2.30;;
18820;SDS011;9539;59.332;18.034;2022-09-29T09:08:56;2.95;;;2.53;;
18820;SDS011;9539;59.332;18.034;2022-09-29T09:11:36;4.13;;;2.33;;
18820;SDS011;9539;59.332;18.034;2022-09-29T09:14:18;2.95;;;2.25;;
18820;SDS011;9539;59.332;18.034;2022-09-29T09:17:01;3.50;;;2.60;;
18820;SDS011;9539;59.332;18.034;2022-09-29T09:22:36;3.25;;;2.60;;
18820;SDS011;9539;59.332;18.034;2022-09-29T09:25:16;3.80;;;2.42;;
18820;SDS011;9539;59.332;18.034;2022-09-29T09:27:48;2.70;;;2.50;;
18820;SDS011;9539;59.332;18.034;2022-09-29T09:30:21;4.05;;;2.80;;
18820;SDS011;9539;59.332;18.034;2022-09-29T09:32:51;3.85;;;2.47;;
18820;SDS011;9539;59.332;18.034;2022-09-29T09:35:27;3.05;;;2.38;;
18820;SDS011;9539;59.332;18.034;2022-09-29T09:37:58;3.25;;;2.58;;
18820;SDS011;9539;59.332;18.034;2022-09-29T09:40:30;4.50;;;2.42;;
18820;SDS011;9539;59.332;18.034;2022-09-29T09:43:05;2.35;;;2.15;;
18820;SDS011;9539;59.332;18.034;2022-09-29T09:45:38;3.03;;;2.38;;
18820;SDS011;9539;59.332;18.034;2022-09-29T09:48:14;2.67;;;2.22;;
18820;SDS011;9539;59.332;18.034;2022-09-29T09:50:44;3.80;;;2.40;;
18820;SDS011;9539;59.332;18.034;2022-09-29T09:53:16;5.47;;;2.50;;
18820;SDS011;9539;59.332;18.034;2022-09-29T09:55:50;3.75;;;2.22;;
18820;SDS011;9539;59.332;18.034;2022-09-29T09:58:27;5.10;;;2.55;;
18820;SDS011;9539;59.332;18.034;2022-09-29T10:01:07;6.00;;;2.08;;
18820;SDS011;9539;59.332;18.034;2022-09-29T10:03:37;4.10;;;2.13;;
18820;SDS011;9539;59.332;18.034;2022-09-29T10:06:04;3.30;;;2.15;;
18820;SDS011;9539;59.332;18.034;2022-09-29T10:08:33;4.68;;;2.17;;
18820;SDS011;9539;59.332;18.034;2022-09-29T10:11:07;2.53;;;2.20;;
18820;SDS011;9539;59.332;18.034;2022-09-29T10:13:47;5.15;;;2.30;;
18820;SDS011;9539;59.332;18.034;2022-09-29T10:16:21;3.15;;;1.90;;
18820;SDS011;9539;59.332;18.034;2022-09-29T10:18:54;3.13;;;2.35;;
18820;SDS011;9539;59.332;18.034;2022-09-29T10:21:22;3.35;;;1.88;;
18820;SDS011;9539;59.332;18.034;2022-09-29T10:24:00;2.20;;;2.03;;
18820;SDS011;9539;59.332;18.034;2022-09-29T10:26:30;2.15;;;1.52;;
18820;SDS011;9539;59.332;18.034;2022-09-29T10:29:02;4.07;;;2.10;;
18820;SDS011;9539;59.332;18.034;2022-09-29T10:31:42;3.17;;;1.88;;
18820;SDS011;9539;59.332;18.034;2022-09-29T10:34:25;1.67;;;1.58;;
18820;SDS011;9539;59.332;18.034;2022-09-29T10:36:55;6.07;;;1.80;;
18820;SDS011;9539;59.332;18.034;2022-09-29T10:39:30;2.38;;;1.85;;
18820;SDS011;9539;59.332;18.034;2022-09-29T10:41:59;1.50;;;1.40;;
18820;SDS011;9539;59.332;18.034;2022-09-29T10:44:29;2.38;;;1.92;;
18820;SDS011;9539;59.332;18.034;2022-09-29T10:46:58;2.58;;;1.80;;
18820;SDS011;9539;59.332;18.034;2022-09-29T10:49:26;2.20;;;2.00;;
18820;SDS011;9539;59.332;18.034;2022-09-29T10:51:55;2.13;;;1.90;;
18820;SDS011;9539;59.332;18.034;2022-09-29T10:54:26;1.85;;;1.73;;
18820;SDS011;9539;59.332;18.034;2022-09-29T10:56:56;2.08;;;1.88;;
18820;SDS011;9539;59.332;18.034;2022-09-29T10:59:23;2.63;;;1.75;;
18820;SDS011;9539;59.332;18.034;2022-09-29T11:01:53;1.85;;;1.75;;
18820;SDS011;9539;59.332;18.034;2022-09-29T11:04:23;2.22;;;1.70;;
18820;SDS011;9539;59.332;18.034;2022-09-29T11:06:55;2.50;;;1.70;;
18820;SDS011;9539;59.332;18.034;2022-09-29T11:09:27;1.90;;;1.70;;
18820;SDS011;9539;59.332;18.034;2022-09-29T11:11:56;3.33;;;1.75;;
18820;SDS011;9539;59.332;18.034;2022-09-29T11:14:24;2.28;;;1.65;;
18820;SDS011;9539;59.332;18.034;2022-09-29T11:16:54;1.48;;;1.38;;
18820;SDS011;9539;59.332;18.034;2022-09-29T11:19:23;1.95;;;1.67;;
18820;SDS011;9539;59.332;18.034;2022-09-29T11:27:53;1.60;;;1.50;;
18820;SDS011;9539;59.332;18.034;2022-09-29T11:30:31;1.65;;;1.52;;
18820;SDS011;9539;59.332;18.034;2022-09-29T11:33:11;1.45;;;1.35;;
18820;SDS011;9539;59.332;18.034;2022-09-29T11:35:50;1.30;;;1.20;;
18820;SDS011;9539;59.332;18.034;2022-09-29T11:38:31;3.55;;;1.50;;
18820;SDS011;9539;59.332;18.034;2022-09-29T11:41:26;1.90;;;1.30;;
18820;SDS011;9539;59.332;18.034;2022-09-29T11:44:08;2.88;;;1.42;;
18820;SDS011;9539;59.332;18.034;2022-09-29T11:46:54;1.38;;;1.25;;
18820;SDS011;9539;59.332;18.034;2022-09-29T11:49:41;1.98;;;1.55;;
18820;SDS011;9539;59.332;18.034;2022-09-29T11:52:27;1.50;;;1.40;;
18820;SDS011;9539;59.332;18.034;2022-09-29T11:55:24;1.70;;;1.38;;
18820;SDS011;9539;59.332;18.034;2022-09-29T11:58:04;1.52;;;1.30;;
18820;SDS011;9539;59.332;18.034;2022-09-29T12:00:49;1.92;;;1.33;;
18820;SDS011;9539;59.332;18.034;2022-09-29T12:03:30;1.90;;;1.42;;
18820;SDS011;9539;59.332;18.034;2022-09-29T12:06:10;2.60;;;1.45;;
18820;SDS011;9539;59.332;18.034;2022-09-29T12:08:52;2.03;;;1.23;;
18820;SDS011;9539;59.332;18.034;2022-09-29T12:11:29;2.40;;;1.30;;
18820;SDS011;9539;59.332;18.034;2022-09-29T12:14:08;1.35;;;1.20;;
18820;SDS011;9539;59.332;18.034;2022-09-29T12:16:42;2.35;;;1.50;;
18820;SDS011;9539;59.332;18.034;2022-09-29T12:19:16;1.40;;;1.30;;
18820;SDS011;9539;59.332;18.034;2022-09-29T12:21:48;1.38;;;1.25;;
18820;SDS011;9539;59.332;18.034;2022-09-29T12:24:18;2.15;;;1.25;;
18820;SDS011;9539;59.332;18.034;2022-09-29T12:26:59;1.38;;;1.27;;
18820;SDS011;9539;59.332;18.034;2022-09-29T12:29:32;4.13;;;1.40;;
18820;SDS011;9539;59.332;18.034;2022-09-29T12:32:03;2.00;;;1.73;;
18820;SDS011;9539;59.332;18.034;2022-09-29T12:34:38;1.45;;;1.35;;
18820;SDS011;9539;59.332;18.034;2022-09-29T12:37:12;1.70;;;1.20;;
18820;SDS011;9539;59.332;18.034;2022-09-29T12:39:45;1.27;;;1.10;;
18820;SDS011;9539;59.332;18.034;2022-09-29T12:42:26;1.30;;;1.20;;
18820;SDS011;9539;59.332;18.034;2022-09-29T12:45:04;1.30;;;1.20;;
18820;SDS011;9539;59.332;18.034;2022-09-29T12:47:47;2.35;;;1.20;;
18820;SDS011;9539;59.332;18.034;2022-09-29T12:50:21;1.95;;;1.30;;
18820;SDS011;9539;59.332;18.034;2022-09-29T12:52:54;1.20;;;1.20;;
18820;SDS011;9539;59.332;18.034;2022-09-29T12:55:27;0.82;;;0.82;;
18820;SDS011;9539;59.332;18.034;2022-09-29T12:58:07;1.70;;;1.30;;
18820;SDS011;9539;59.332;18.034;2022-09-29T13:00:40;3.75;;;1.17;;
18820;SDS011;9539;59.332;18.034;2022-09-29T13:03:21;2.08;;;0.90;;
18820;SDS011;9539;59.332;18.034;2022-09-29T13:06:19;2.78;;;1.38;;
18820;SDS011;9539;59.332;18.034;2022-09-29T13:12:24;3.30;;;1.45;;
18820;SDS011;9539;59.332;18.034;2022-09-29T13:18:01;1.38;;;1.27;;
18820;SDS011;9539;59.332;18.034;2022-09-29T13:20:49;2.70;;;1.35;;
18820;SDS011;9539;59.332;18.034;2022-09-29T13:23:31;1.30;;;1.20;;
18820;SDS011;9539;59.332;18.034;2022-09-29T13:26:19;1.40;;;1.30;;
18820;SDS011;9539;59.332;18.034;2022-09-29T13:28:57;1.27;;;1.20;;
18820;SDS011;9539;59.332;18.034;2022-09-29T13:31:28;2.40;;;1.20;;
18820;SDS011;9539;59.332;18.034;2022-09-29T13:34:02;1.65;;;1.20;;
18820;SDS011;9539;59.332;18.034;2022-09-29T13:36:31;1.42;;;1.30;;
18820;SDS011;9539;59.332;18.034;2022-09-29T13:39:03;1.13;;;1.10;;
18820;SDS011;9539;59.332;18.034;2022-09-29T13:41:33;1.58;;;1.30;;
18820;SDS011;9539;59.332;18.034;2022-09-29T13:44:05;1.80;;;1.20;;
18820;SDS011;9539;59.332;18.034;2022-09-29T13:46:48;3.25;;;1.33;;
18820;SDS011;9539;59.332;18.034;2022-09-29T13:49:24;5.70;;;1.30;;
18820;SDS011;9539;59.332;18.034;2022-09-29T13:51:54;1.83;;;1.30;;
18820;SDS011;9539;59.332;18.034;2022-09-29T13:54:35;1.23;;;1.10;;
18820;SDS011;9539;59.332;18.034;2022-09-29T14:02:59;1.42;;;1.20;;
18820;SDS011;9539;59.332;18.034;2022-09-29T14:05:45;1.60;;;1.42;;
18820;SDS011;9539;59.332;18.034;2022-09-29T14:08:18;1.85;;;1.30;;
18820;SDS011;9539;59.332;18.034;2022-09-29T14:10:52;1.67;;;1.35;;
18820;SDS011;9539;59.332;18.034;2022-09-29T14:13:29;1.30;;;1.20;;
18820;SDS011;9539;59.332;18.034;2022-09-29T14:16:13;1.30;;;1.20;;
18820;SDS011;9539;59.332;18.034;2022-09-29T14:19:04;1.20;;;1.10;;
18820;SDS011;9539;59.332;18.034;2022-09-29T14:21:45;1.33;;;1.23;;
18820;SDS011;9539;59.332;18.034;2022-09-29T14:30:10;1.50;;;1.40;;
18820;SDS011;9539;59.332;18.034;2022-09-29T14:32:49;1.42;;;1.33;;
18820;SDS011;9539;59.332;18.034;2022-09-29T14:35:21;4.10;;;1.48;;
18820;SDS011;9539;59.332;18.034;2022-09-29T14:37:56;1.98;;;1.48;;
18820;SDS011;9539;59.332;18.034;2022-09-29T14:40:26;3.15;;;1.50;;
18820;SDS011;9539;59.332;18.034;2022-09-29T14:43:07;1.40;;;1.30;;
18820;SDS011;9539;59.332;18.034;2022-09-29T14:45:40;1.65;;;1.35;;
18820;SDS011;9539;59.332;18.034;2022-09-29T14:48:38;3.38;;;1.50;;
18820;SDS011;9539;59.332;18.034;2022-09-29T14:51:33;1.60;;;1.50;;
18820;SDS011;9539;59.332;18.034;2022-09-29T14:54:25;1.33;;;1.23;;
18820;SDS011;9539;59.332;18.034;2022-09-29T14:57:03;1.88;;;1.48;;
18820;SDS011;9539;59.332;18.034;2022-09-29T14:59:45;2.63;;;1.50;;
18820;SDS011;9539;59.332;18.034;2022-09-29T15:02:23;2.58;;;1.40;;
18820;SDS011;9539;59.332;18.034;2022-09-29T15:04:53;2.47;;;1.50;;
18820;SDS011;9539;59.332;18.034;2022-09-29T15:07:21;2.65;;;2.30;;
18820;SDS011;9539;59.332;18.034;2022-09-29T15:09:51;2.72;;;2.10;;
18820;SDS011;9539;59.332;18.034;2022-09-29T15:12:21;1.73;;;1.63;;
18820;SDS011;9539;59.332;18.034;2022-09-29T15:14:50;2.75;;;1.80;;
18820;SDS011;9539;59.332;18.034;2022-09-29T15:17:21;2.65;;;1.50;;
18820;SDS011;9539;59.332;18.034;2022-09-29T15:20:03;1.80;;;1.70;;
18820;SDS011;9539;59.332;18.034;2022-09-29T15:22:53;1.85;;;1.50;;
18820;SDS011;9539;59.332;18.034;2022-09-29T15:25:30;2.08;;;1.80;;
18820;SDS011;9539;59.332;18.034;2022-09-29T15:27:59;2.15;;;1.80;;
18820;SDS011;9539;59.332;18.034;2022-09-29T15:30:28;2.78;;;1.80;;
18820;SDS011;9539;59.332;18.034;2022-09-29T15:33:13;2.22;;;1.92;;
18820;SDS011;9539;59.332;18.034;2022-09-29T15:35:45;3.10;;;1.83;;
18820;SDS011;9539;59.332;18.034;2022-09-29T15:38:16;1.88;;;1.77;;
18820;SDS011;9539;59.332;18.034;2022-09-29T15:40:59;2.30;;;1.50;;
18820;SDS011;9539;59.332;18.034;2022-09-29T15:43:29;4.20;;;3.08;;
18820;SDS011;9539;59.332;18.034;2022-09-29T15:46:12;2.60;;;2.40;;